Time;durP1;ratioP1;P1;durP2;ratioP2;P2;SDS_P1;SDS_P2;PMS_P1;PMS_P2;Temp;Humidity;BMP_temperature;BMP_pressure;BME280_temperature;BME280_humidity;BME280_pressure;Samples;Min_cycle;Max_cycle;Signal;HPM_P1;HPM_P2
2023/09/28 00:01:21;;;;;;;15.65;11.80;;;18.10;99.90;;;;;;4900981;29;20052;-78
2023/09/28 00:04:07;;;;;;;13.25;10.60;;;18.10;99.90;;;;;;4904450;29;20049;-81
2023/09/28 00:06:53;;;;;;;16.17;10.57;;;18.10;99.90;;;;;;4902569;29;20051;-81
2023/09/28 00:09:39;;;;;;;13.73;10.63;;;18.10;99.90;;;;;;4886218;29;20147;-78
2023/09/28 00:12:26;;;;;;;15.65;11.18;;;18.10;99.90;;;;;;4907540;29;20077;-80
2023/09/28 00:15:13;;;;;;;14.57;10.02;;;18.10;99.90;;;;;;4892312;29;20056;-80
2023/09/28 00:17:59;;;;;;;13.13;10.88;;;18.10;99.90;;;;;;4905275;29;20056;-80
2023/09/28 00:20:45;;;;;;;16.55;10.70;;;18.10;99.90;;;;;;4905992;29;20124;-79
2023/09/28 00:23:32;;;;;;;13.55;10.13;;;18.10;99.90;;;;;;4898864;29;20054;-77
2023/09/28 00:26:19;;;;;;;13.38;10.05;;;18.10;99.90;;;;;;4882119;29;20053;-79
2023/09/28 00:29:06;;;;;;;14.93;10.32;;;18.00;99.90;;;;;;4867152;29;20121;-81
2023/09/28 00:31:52;;;;;;;14.00;10.88;;;18.00;99.90;;;;;;4896473;29;20052;-76
2023/09/28 00:34:38;;;;;;;15.50;10.55;;;18.00;99.90;;;;;;4883782;29;20048;-77
2023/09/28 00:37:24;;;;;;;16.55;11.10;;;18.00;99.90;;;;;;4896458;29;20049;-76
2023/09/28 00:40:27;;;;;;;15.68;10.20;;;18.00;99.90;;;;;;4897210;29;20052;-79
2023/09/28 00:43:13;;;;;;;15.73;10.82;;;18.00;99.90;;;;;;4897257;29;20048;-80
2023/09/28 00:46:01;;;;;;;15.32;10.35;;;17.90;99.90;;;;;;4897370;29;20581;-80
2023/09/28 00:48:58;;;;;;;12.88;9.75;;;17.90;99.90;;;;;;4898682;29;20056;-77
2023/09/28 00:51:47;;;;;;;17.10;9.95;;;17.90;99.90;;;;;;4869080;29;20112;-80
2023/09/28 00:54:34;;;;;;;14.60;10.00;;;17.90;99.90;;;;;;4899355;29;20067;-81
2023/09/28 00:57:20;;;;;;;13.80;10.25;;;17.90;99.90;;;;;;4902932;29;20060;-79
2023/09/28 01:00:18;;;;;;;12.32;9.25;;;17.90;99.90;;;;;;4902818;29;20068;-79
2023/09/28 01:03:06;;;;;;;15.68;11.20;;;17.90;99.90;;;;;;4900648;29;20044;-80
2023/09/28 01:05:52;;;;;;;13.40;9.70;;;18.00;99.90;;;;;;4897694;29;20184;-82
2023/09/28 01:08:38;;;;;;;12.10;9.70;;;18.00;99.90;;;;;;4885197;29;20060;-79
2023/09/28 01:11:24;;;;;;;29.20;10.05;;;18.00;99.90;;;;;;4899548;29;20143;-80
2023/09/28 01:14:11;;;;;;;14.77;9.50;;;18.00;99.90;;;;;;4898113;29;20064;-81
2023/09/28 01:16:58;;;;;;;13.05;9.57;;;18.00;99.90;;;;;;4897605;29;20060;-80
2023/09/28 01:19:44;;;;;;;17.27;9.20;;;17.90;99.90;;;;;;4895961;29;20056;-81
2023/09/28 01:22:30;;;;;;;14.27;9.52;;;17.90;99.90;;;;;;4895193;29;20053;-80
2023/09/28 01:25:18;;;;;;;13.85;9.32;;;17.80;99.90;;;;;;4897785;29;20057;-79
2023/09/28 01:28:05;;;;;;;15.40;8.93;;;17.90;99.90;;;;;;4896266;29;20100;-80
2023/09/28 01:30:52;;;;;;;13.05;8.38;;;17.80;99.90;;;;;;4882821;29;20059;-78
2023/09/28 01:33:38;;;;;;;14.80;8.88;;;17.90;99.90;;;;;;4898565;29;20053;-81
2023/09/28 01:36:24;;;;;;;11.27;8.52;;;17.80;99.90;;;;;;4878237;29;20061;-78
2023/09/28 01:39:10;;;;;;;12.60;8.82;;;17.80;99.90;;;;;;4895592;29;20052;-75
2023/09/28 01:41:56;;;;;;;11.15;8.68;;;17.80;99.90;;;;;;4868192;29;20143;-79
2023/09/28 01:44:42;;;;;;;16.05;9.60;;;17.80;99.90;;;;;;4898623;29;20057;-80
2023/09/28 01:47:28;;;;;;;13.20;8.20;;;17.80;99.90;;;;;;4869622;29;20055;-77
2023/09/28 01:50:15;;;;;;;12.60;8.07;;;17.80;99.90;;;;;;4899263;29;20045;-76
2023/09/28 01:53:01;;;;;;;10.32;7.50;;;17.80;99.90;;;;;;4881748;29;20052;-77
2023/09/28 01:55:48;;;;;;;9.73;6.93;;;17.80;99.90;;;;;;4900812;29;20059;-80
2023/09/28 01:58:34;;;;;;;12.38;7.78;;;17.80;99.90;;;;;;4901283;28;20413;-77
2023/09/28 02:01:28;;;;;;;13.32;7.18;;;17.90;99.90;;;;;;4899530;29;20122;-79
2023/09/28 02:04:15;;;;;;;11.95;6.95;;;17.90;99.90;;;;;;4899183;29;20481;-79
2023/09/28 02:07:01;;;;;;;11.80;7.22;;;17.80;99.90;;;;;;4899262;29;20136;-81
2023/09/28 02:09:47;;;;;;;11.30;6.72;;;17.90;99.90;;;;;;4900104;29;20108;-75
2023/09/28 02:12:33;;;;;;;11.45;6.82;;;17.90;99.90;;;;;;4899269;29;20406;-80
2023/09/28 02:15:21;;;;;;;9.60;6.30;;;17.80;99.90;;;;;;4900661;29;20472;-80
2023/09/28 02:18:07;;;;;;;14.10;6.57;;;17.80;99.90;;;;;;4901180;29;20166;-79
2023/09/28 02:20:53;;;;;;;10.68;6.15;;;17.90;99.90;;;;;;4898963;29;20080;-79
2023/09/28 02:23:39;;;;;;;9.93;6.20;;;17.80;99.90;;;;;;4870413;29;20117;-81
2023/09/28 02:26:26;;;;;;;9.70;6.07;;;17.80;99.90;;;;;;4901084;29;20056;-77
2023/09/28 02:29:12;;;;;;;9.38;5.55;;;17.80;99.90;;;;;;4899728;29;20063;-79
2023/09/28 02:31:58;;;;;;;12.88;5.78;;;17.90;99.90;;;;;;4900982;29;20524;-79
2023/09/28 02:34:44;;;;;;;8.60;5.72;;;17.80;99.90;;;;;;4901700;29;20099;-80
2023/09/28 02:37:30;;;;;;;10.40;5.88;;;17.80;99.90;;;;;;4899149;29;20116;-81
2023/09/28 02:40:19;;;;;;;9.75;6.22;;;17.80;99.90;;;;;;4899517;29;20142;-78
2023/09/28 02:43:05;;;;;;;10.43;5.75;;;17.80;99.90;;;;;;4883313;29;20096;-77
2023/09/28 02:45:51;;;;;;;9.02;6.07;;;17.80;99.90;;;;;;4898241;29;20053;-80
2023/09/28 02:48:37;;;;;;;10.13;6.85;;;17.80;99.90;;;;;;4899144;29;20095;-80
2023/09/28 02:51:24;;;;;;;11.23;6.68;;;17.80;99.90;;;;;;4897849;29;20045;-80
2023/09/28 02:54:10;;;;;;;11.55;6.43;;;17.80;99.90;;;;;;4896920;29;20060;-80
2023/09/28 02:56:57;;;;;;;11.68;7.05;;;17.80;99.90;;;;;;4897811;29;20420;-75
2023/09/28 02:59:43;;;;;;;9.13;6.13;;;17.80;99.90;;;;;;4897468;29;20167;-81
2023/09/28 03:02:29;;;;;;;15.45;7.22;;;17.70;99.90;;;;;;4881316;29;20088;-81
2023/09/28 03:05:19;;;;;;;10.48;6.28;;;17.70;99.90;;;;;;4897626;29;20049;-77
2023/09/28 03:08:10;;;;;;;9.60;6.70;;;17.70;99.90;;;;;;4898980;29;20052;-78
2023/09/28 03:10:56;;;;;;;12.32;6.85;;;17.60;99.90;;;;;;4897856;29;20060;-77
2023/09/28 03:13:43;;;;;;;16.05;7.45;;;17.50;99.90;;;;;;4897379;29;20147;-80
2023/09/28 03:16:29;;;;;;;12.48;7.53;;;17.50;99.90;;;;;;4899597;28;20087;-80
2023/09/28 03:19:15;;;;;;;10.57;7.15;;;17.50;99.90;;;;;;4898064;29;20052;-80
2023/09/28 03:22:01;;;;;;;14.15;7.32;;;17.40;99.90;;;;;;4897893;29;20082;-79
2023/09/28 03:24:48;;;;;;;13.98;6.78;;;17.40;99.90;;;;;;4898260;29;20056;-78
2023/09/28 03:27:34;;;;;;;11.40;7.20;;;17.30;99.90;;;;;;4896730;29;20080;-79
2023/09/28 03:30:22;;;;;;;12.23;7.00;;;17.20;99.90;;;;;;4897960;29;20529;-81
2023/09/28 03:33:08;;;;;;;10.45;7.28;;;17.20;99.90;;;;;;4898275;29;20048;-76
2023/09/28 03:35:55;;;;;;;12.57;7.45;;;17.20;99.90;;;;;;4898384;29;20104;-78
2023/09/28 03:38:41;;;;;;;10.77;7.20;;;17.20;99.90;;;;;;4898048;29;20063;-80
2023/09/28 03:41:27;;;;;;;11.75;7.53;;;17.10;99.90;;;;;;4897899;29;20094;-77
2023/09/28 03:44:13;;;;;;;10.52;7.45;;;17.20;99.90;;;;;;4896790;29;20048;-79
2023/09/28 03:46:59;;;;;;;15.07;7.15;;;17.20;99.90;;;;;;4896650;29;20516;-78
2023/09/28 03:49:45;;;;;;;12.93;7.72;;;17.20;99.90;;;;;;4896908;29;20112;-80
2023/09/28 03:52:31;;;;;;;10.45;6.90;;;17.20;99.90;;;;;;4898096;29;20048;-77
2023/09/28 03:55:21;;;;;;;10.18;6.95;;;17.20;99.90;;;;;;4897118;29;20049;-76
2023/09/28 03:58:07;;;;;;;10.00;6.93;;;17.10;99.90;;;;;;4896353;29;20450;-76
2023/09/28 04:00:57;;;;;;;11.65;6.68;;;17.10;99.90;;;;;;4897881;29;20572;-77
2023/09/28 04:03:43;;;;;;;14.60;7.68;;;17.10;99.90;;;;;;4879874;29;20187;-80
2023/09/28 04:06:29;;;;;;;9.50;6.35;;;17.10;99.90;;;;;;4897617;29;20052;-77
2023/09/28 04:09:16;;;;;;;11.80;7.00;;;17.10;99.90;;;;;;4897220;29;20067;-79
2023/09/28 04:12:02;;;;;;;13.25;7.18;;;17.10;99.90;;;;;;4879357;29;20096;-76
2023/09/28 04:14:48;;;;;;;11.48;6.82;;;17.10;99.90;;;;;;4896495;29;20052;-79
2023/09/28 04:17:35;;;;;;;11.18;6.80;;;17.10;99.90;;;;;;4896229;29;20064;-78
2023/09/28 04:20:21;;;;;;;17.70;7.38;;;17.10;99.90;;;;;;4879577;29;20049;-78
2023/09/28 04:23:08;;;;;;;14.68;7.65;;;17.10;99.90;;;;;;4879617;29;20139;-76
2023/09/28 04:25:54;;;;;;;13.48;7.00;;;17.10;99.90;;;;;;4897287;29;20442;-80
2023/09/28 04:28:40;;;;;;;12.88;6.93;;;17.10;99.90;;;;;;4895580;29;20572;-77
2023/09/28 04:31:26;;;;;;;11.85;6.75;;;17.00;99.90;;;;;;4896923;29;20060;-80
2023/09/28 04:34:14;;;;;;;10.38;6.20;;;17.00;99.90;;;;;;4896483;29;20425;-76
2023/09/28 04:37:02;;;;;;;10.80;6.60;;;16.90;99.90;;;;;;4896035;29;20513;-75
2023/09/28 04:39:48;;;;;;;10.13;5.78;;;16.90;99.90;;;;;;4895504;29;20432;-75
2023/09/28 04:42:34;;;;;;;11.48;5.63;;;16.90;99.90;;;;;;4896858;29;20413;-76
2023/09/28 04:45:20;;;;;;;13.90;6.90;;;16.90;99.90;;;;;;4896283;29;20063;-77
2023/09/28 04:48:06;;;;;;;15.23;6.72;;;16.90;99.90;;;;;;4895858;29;20584;-77
2023/09/28 04:50:53;;;;;;;17.55;6.90;;;16.90;99.90;;;;;;4878720;29;20064;-75
2023/09/28 04:53:39;;;;;;;12.05;7.40;;;16.90;99.90;;;;;;4896838;29;20048;-75
2023/09/28 04:56:25;;;;;;;11.07;6.80;;;16.90;99.90;;;;;;4897170;29;20139;-78
2023/09/28 04:59:11;;;;;;;12.15;7.30;;;16.80;99.90;;;;;;4895929;29;20483;-75
2023/09/28 05:01:57;;;;;;;12.38;6.75;;;16.80;99.90;;;;;;4897337;29;20052;-74
2023/09/28 05:04:43;;;;;;;13.77;6.65;;;16.70;99.90;;;;;;4895690;29;20139;-75
2023/09/28 05:07:29;;;;;;;13.45;7.18;;;16.70;99.90;;;;;;4879579;29;20498;-75
2023/09/28 05:10:16;;;;;;;12.80;7.45;;;16.60;99.90;;;;;;4896072;29;20068;-75
2023/09/28 05:13:02;;;;;;;15.45;8.38;;;16.50;99.90;;;;;;4897322;29;20056;-74
2023/09/28 05:15:48;;;;;;;17.92;7.88;;;16.50;99.90;;;;;;4896601;29;20513;-76
2023/09/28 05:18:38;;;;;;;13.60;7.65;;;16.40;99.90;;;;;;4900671;29;20152;-75
2023/09/28 05:21:24;;;;;;;15.65;7.60;;;16.40;99.90;;;;;;4898764;29;20057;-80
2023/09/28 05:24:10;;;;;;;12.02;7.50;;;16.30;99.90;;;;;;4898989;29;20064;-76
2023/09/28 05:26:56;;;;;;;11.40;7.15;;;16.30;99.90;;;;;;4900871;29;20056;-76
2023/09/28 05:29:42;;;;;;;17.98;6.93;;;16.20;99.90;;;;;;4900438;29;20108;-76
2023/09/28 05:32:28;;;;;;;19.42;6.95;;;16.20;99.90;;;;;;4900580;29;20451;-78
2023/09/28 05:35:14;;;;;;;20.92;6.60;;;16.20;99.90;;;;;;4900420;29;20449;-77
2023/09/28 05:38:02;;;;;;;16.00;6.25;;;16.20;99.90;;;;;;4900123;29;20131;-76
2023/09/28 05:40:48;;;;;;;17.00;5.43;;;16.10;99.90;;;;;;4900303;29;20056;-77
2023/09/28 05:43:34;;;;;;;24.52;6.30;;;16.20;99.90;;;;;;4900122;29;20104;-79
2023/09/28 05:46:20;;;;;;;20.27;5.80;;;16.20;99.90;;;;;;4900270;29;20052;-77
2023/09/28 05:49:06;;;;;;;20.65;5.07;;;16.10;99.90;;;;;;4899675;29;20147;-75
2023/09/28 05:51:52;;;;;;;15.07;5.03;;;16.10;99.90;;;;;;4899512;29;20096;-76
2023/09/28 05:54:38;;;;;;;15.35;4.03;;;16.10;99.90;;;;;;4900037;29;20052;-76
2023/09/28 05:57:24;;;;;;;22.63;4.80;;;16.10;99.90;;;;;;4900506;28;20044;-76
2023/09/28 06:00:11;;;;;;;17.00;4.00;;;16.10;99.90;;;;;;4900059;29;20458;-77
2023/09/28 06:02:59;;;;;;;19.30;4.88;;;16.20;99.90;;;;;;4900480;28;20080;-76
2023/09/28 06:05:45;;;;;;;19.52;3.92;;;16.20;99.90;;;;;;4900081;29;20087;-75
2023/09/28 06:08:31;;;;;;;18.98;3.78;;;16.30;99.90;;;;;;4899312;28;20060;-75
2023/09/28 06:11:18;;;;;;;19.52;4.40;;;16.30;99.90;;;;;;4899187;29;20585;-74
2023/09/28 06:14:04;;;;;;;18.17;3.60;;;16.30;99.90;;;;;;4898388;29;20477;-80
2023/09/28 06:16:50;;;;;;;19.98;4.25;;;16.30;99.90;;;;;;4882463;29;20494;-79
2023/09/28 06:19:37;;;;;;;19.02;3.70;;;16.30;99.90;;;;;;4882436;29;20091;-76
2023/09/28 06:22:23;;;;;;;20.65;4.38;;;16.30;99.90;;;;;;4899289;29;20052;-74
2023/09/28 06:25:09;;;;;;;19.95;4.10;;;16.40;99.90;;;;;;4898320;29;20060;-78
2023/09/28 06:27:55;;;;;;;25.75;5.00;;;16.40;99.90;;;;;;4897955;29;20048;-77
2023/09/28 06:30:41;;;;;;;26.65;5.03;;;16.30;99.90;;;;;;4899318;29;20096;-76
2023/09/28 06:33:28;;;;;;;20.88;4.35;;;16.40;99.90;;;;;;4898218;29;20501;-77
2023/09/28 06:36:17;;;;;;;26.20;5.50;;;16.50;99.90;;;;;;4898663;29;20057;-75
2023/09/28 06:39:04;;;;;;;25.63;4.68;;;16.50;99.90;;;;;;4897718;29;20060;-80
2023/09/28 06:41:50;;;;;;;26.95;4.93;;;16.50;99.90;;;;;;4898117;29;20052;-75
2023/09/28 06:44:36;;;;;;;18.73;4.85;;;16.50;99.90;;;;;;4900457;29;20212;-79
2023/09/28 06:47:22;;;;;;;24.92;6.10;;;16.60;99.90;;;;;;4881164;29;20112;-80
2023/09/28 06:50:10;;;;;;;29.33;5.05;;;16.60;99.90;;;;;;4881386;29;20394;-80
2023/09/28 06:52:56;;;;;;;26.73;5.53;;;16.60;99.90;;;;;;4897871;29;20060;-81
2023/09/28 06:55:44;;;;;;;28.27;3.85;;;16.50;99.90;;;;;;4897539;29;20061;-79
2023/09/28 06:58:31;;;;;;;27.83;4.40;;;16.60;99.90;;;;;;4880660;29;20064;-77
2023/09/28 07:01:17;;;;;;;29.25;6.05;;;16.60;99.90;;;;;;4898658;29;20056;-76
2023/09/28 07:04:04;;;;;;;25.25;4.43;;;16.80;99.90;;;;;;4899109;29;20151;-78
2023/09/28 07:06:50;;;;;;;32.72;5.18;;;17.00;99.90;;;;;;4898907;29;20044;-77
2023/09/28 07:09:36;;;;;;;28.45;5.72;;;17.10;99.90;;;;;;4896952;29;20058;-76
2023/09/28 07:12:23;;;;;;;25.33;5.78;;;17.30;99.90;;;;;;4898632;29;20053;-77
2023/09/28 07:15:09;;;;;;;27.15;5.15;;;17.40;99.90;;;;;;4897212;29;20417;-75
2023/09/28 07:17:56;;;;;;;25.85;5.90;;;17.40;99.90;;;;;;4880305;29;20049;-76
2023/09/28 07:20:42;;;;;;;42.88;5.63;;;17.40;99.90;;;;;;4868090;29;20066;-79
2023/09/28 07:23:28;;;;;;;26.27;4.63;;;17.40;99.90;;;;;;4896809;29;20609;-77
2023/09/28 07:26:18;;;;;;;26.15;5.18;;;17.40;99.90;;;;;;4867514;29;20056;-75
2023/09/28 07:29:04;;;;;;;27.42;5.68;;;17.30;99.90;;;;;;4898246;29;20509;-75
2023/09/28 07:31:50;;;;;;;25.35;5.65;;;17.30;99.90;;;;;;4896623;29;20064;-77
2023/09/28 07:34:37;;;;;;;24.88;4.70;;;17.30;99.90;;;;;;4867186;29;20064;-79
2023/09/28 07:37:24;;;;;;;26.33;4.95;;;17.30;99.90;;;;;;4897485;29;20056;-76
2023/09/28 07:40:12;;;;;;;25.88;5.00;;;17.30;99.90;;;;;;4895569;29;20056;-77
2023/09/28 07:42:59;;;;;;;25.08;4.57;;;17.30;99.90;;;;;;4897703;29;20063;-77
2023/09/28 07:45:45;;;;;;;29.35;4.85;;;17.30;99.90;;;;;;4898005;29;20084;-77
2023/09/28 07:48:31;;;;;;;21.23;5.50;;;17.40;99.90;;;;;;4898016;29;20446;-77
2023/09/28 07:51:17;;;;;;;26.15;4.53;;;17.40;99.90;;;;;;4898955;29;20056;-78
2023/09/28 07:54:03;;;;;;;23.33;4.30;;;17.40;99.90;;;;;;4898445;29;20569;-75
2023/09/28 07:56:49;;;;;;;20.73;4.57;;;17.50;99.90;;;;;;4898944;28;20096;-75
2023/09/28 07:59:36;;;;;;;26.95;4.85;;;17.50;99.90;;;;;;4897408;29;20509;-74
2023/09/28 08:02:22;;;;;;;26.90;5.25;;;17.50;99.90;;;;;;4895976;29;20087;-74
2023/09/28 08:05:08;;;;;;;31.23;7.93;;;17.60;99.90;;;;;;4896676;29;20064;-74
2023/09/28 08:07:54;;;;;;;30.45;7.05;;;17.50;99.90;;;;;;4897542;29;20114;-74
2023/09/28 08:10:42;;;;;;;27.63;5.57;;;17.50;99.90;;;;;;4896841;29;20052;-75
2023/09/28 08:13:28;;;;;;;23.98;5.03;;;17.60;99.90;;;;;;4896794;29;20104;-76
2023/09/28 08:16:14;;;;;;;32.80;6.13;;;17.70;99.90;;;;;;4897565;29;20059;-75
2023/09/28 08:19:00;;;;;;;28.80;7.45;;;17.70;99.90;;;;;;4896714;29;20052;-76
2023/09/28 08:21:46;;;;;;;28.10;4.43;;;17.80;99.90;;;;;;4897511;29;20057;-76
2023/09/28 08:24:32;;;;;;;34.80;6.03;;;17.90;99.90;;;;;;4896780;29;20084;-76
2023/09/28 08:27:18;;;;;;;24.83;4.47;;;18.00;99.90;;;;;;4882514;29;20572;-78
2023/09/28 08:30:05;;;;;;;30.45;6.93;;;18.10;99.90;;;;;;4895894;29;20057;-73
2023/09/28 08:32:53;;;;;;;20.92;4.35;;;18.10;99.90;;;;;;4897343;29;20506;-78
2023/09/28 08:35:39;;;;;;;18.58;5.40;;;18.20;99.90;;;;;;4896978;29;20063;-79
2023/09/28 08:38:25;;;;;;;30.65;6.18;;;18.30;99.90;;;;;;4896839;29;20428;-78
2023/09/28 08:41:14;;;;;;;25.67;4.20;;;18.30;99.90;;;;;;4897481;29;20052;-75
2023/09/28 08:44:05;;;;;;;22.15;4.97;;;18.30;99.90;;;;;;4896299;29;20075;-77
2023/09/28 08:46:57;;;;;;;22.38;4.35;;;18.40;99.90;;;;;;4896917;29;20402;-78
2023/09/28 08:49:47;;;;;;;19.08;4.63;;;18.30;99.90;;;;;;4896539;29;20056;-80
2023/09/28 08:52:35;;;;;;;27.58;4.72;;;18.30;99.90;;;;;;4895553;29;20048;-77
2023/09/28 08:55:23;;;;;;;25.38;4.47;;;18.30;99.90;;;;;;4901005;29;20049;-79
2023/09/28 08:58:11;;;;;;;19.67;4.28;;;18.30;99.90;;;;;;4898170;29;20128;-81
2023/09/28 09:00:59;;;;;;;32.25;5.57;;;18.30;99.90;;;;;;4878996;29;20067;-74
2023/09/28 09:03:45;;;;;;;25.60;4.57;;;18.30;99.90;;;;;;4896016;29;20056;-80
2023/09/28 09:06:31;;;;;;;24.60;5.70;;;18.20;99.90;;;;;;4896439;29;20060;-75
2023/09/28 09:09:18;;;;;;;33.22;5.00;;;18.20;99.90;;;;;;4897440;29;20056;-77
2023/09/28 09:12:09;;;;;;;28.08;4.60;;;18.20;99.90;;;;;;4896867;29;20044;-79
2023/09/28 09:14:55;;;;;;;21.70;5.20;;;18.10;99.90;;;;;;4897784;29;20479;-79
2023/09/28 09:17:41;;;;;;;23.38;4.15;;;18.10;99.90;;;;;;4897265;29;20052;-77
2023/09/28 09:20:29;;;;;;;26.73;5.45;;;18.10;99.90;;;;;;4896183;29;20045;-77
2023/09/28 09:23:16;;;;;;;26.63;4.85;;;18.10;99.90;;;;;;4896907;29;20063;-77
2023/09/28 09:26:02;;;;;;;22.58;4.18;;;18.10;99.90;;;;;;4896442;29;20561;-75
2023/09/28 09:28:48;;;;;;;21.60;4.22;;;18.20;99.90;;;;;;4895142;29;20049;-79
2023/09/28 09:31:36;;;;;;;26.15;4.43;;;18.30;99.90;;;;;;4896027;29;20045;-78
2023/09/28 09:34:22;;;;;;;20.17;4.28;;;18.40;99.90;;;;;;4879440;29;20516;-78
2023/09/28 09:37:12;;;;;;;28.10;5.35;;;18.50;99.90;;;;;;4897365;29;20405;-75
2023/09/28 09:40:12;;;;;;;34.58;6.65;;;18.60;99.90;;;;;;4896105;29;20056;-77
2023/09/28 09:43:16;;;;;;;23.70;5.15;;;18.70;99.90;;;;;;4896665;29;20067;-78
2023/09/28 09:46:09;;;;;;;26.55;4.40;;;18.80;99.90;;;;;;4896323;29;20056;-78
2023/09/28 09:48:56;;;;;;;28.33;3.80;;;18.90;99.90;;;;;;4896159;29;20143;-76
2023/09/28 09:51:45;;;;;;;28.05;5.78;;;18.80;99.90;;;;;;4895048;29;20067;-79
2023/09/28 09:54:33;;;;;;;19.27;4.20;;;18.90;99.90;;;;;;4895514;29;20049;-77
2023/09/28 09:57:20;;;;;;;27.63;4.90;;;18.80;99.90;;;;;;4896507;29;20052;-79
2023/09/28 10:00:08;;;;;;;25.33;4.70;;;18.80;99.90;;;;;;4896493;29;20588;-76
2023/09/28 10:02:55;;;;;;;17.65;4.50;;;18.90;99.90;;;;;;4897071;29;20139;-75
2023/09/28 10:05:41;;;;;;;20.05;4.03;;;19.00;99.90;;;;;;4900409;29;20073;-75
2023/09/28 10:08:32;;;;;;;22.63;5.57;;;19.20;99.90;;;;;;4869643;29;20512;-75
2023/09/28 10:11:22;;;;;;;25.08;4.93;;;19.20;99.90;;;;;;4898727;29;20130;-76
2023/09/28 10:14:08;;;;;;;15.10;4.15;;;19.30;99.90;;;;;;4898171;29;20064;-75
2023/09/28 10:16:55;;;;;;;19.05;4.88;;;19.30;99.90;;;;;;4885728;29;20052;-76
2023/09/28 10:19:42;;;;;;;24.63;5.05;;;19.30;99.90;;;;;;4899268;29;20092;-78
2023/09/28 10:22:28;;;;;;;20.90;4.72;;;19.40;99.90;;;;;;4899682;29;20513;-75
2023/09/28 10:25:18;;;;;;;19.48;5.18;;;19.40;99.90;;;;;;4883836;29;20057;-75
2023/09/28 10:28:04;;;;;;;18.67;3.90;;;19.40;99.90;;;;;;4899554;29;20048;-76
2023/09/28 10:31:10;;;;;;;22.20;4.53;;;19.40;99.90;;;;;;4899176;29;20064;-77
2023/09/28 10:34:01;;;;;;;15.27;3.55;;;19.50;99.90;;;;;;4881982;29;20052;-76
2023/09/28 10:37:10;;;;;;;17.77;4.13;;;19.40;99.90;;;;;;4897867;29;20413;-77
2023/09/28 10:39:57;;;;;;;27.00;5.15;;;19.40;99.90;;;;;;4898240;29;20067;-75
2023/09/28 10:42:46;;;;;;;13.05;3.53;;;19.30;99.90;;;;;;4884440;29;20489;-76
2023/09/28 10:45:36;;;;;;;34.00;5.35;;;19.20;99.90;;;;;;4897544;29;20421;-76
2023/09/28 10:48:23;;;;;;;16.25;3.78;;;19.20;99.90;;;;;;4896877;29;20115;-79
2023/09/28 10:51:11;;;;;;;20.58;4.75;;;19.00;99.90;;;;;;4897526;29;20053;-77
2023/09/28 10:53:57;;;;;;;19.92;4.15;;;19.00;99.90;;;;;;4898858;29;20108;-79
2023/09/28 10:56:48;;;;;;;27.98;5.45;;;18.90;99.90;;;;;;4880542;29;20492;-75
2023/09/28 10:59:37;;;;;;;25.17;4.97;;;18.90;99.90;;;;;;4897338;29;20067;-76
2023/09/28 11:02:23;;;;;;;17.48;3.80;;;18.90;99.90;;;;;;4897384;29;20053;-79
2023/09/28 11:05:10;;;;;;;21.67;4.15;;;18.90;99.90;;;;;;4898405;29;20068;-77
2023/09/28 11:07:59;;;;;;;24.35;4.60;;;19.00;99.90;;;;;;4897396;29;20057;-75
2023/09/28 11:10:47;;;;;;;23.98;3.92;;;19.00;99.90;;;;;;4897328;29;20067;-77
2023/09/28 11:13:34;;;;;;;26.90;3.80;;;19.00;99.90;;;;;;4867728;29;20067;-77
2023/09/28 11:16:20;;;;;;;22.42;3.53;;;19.10;99.90;;;;;;4898338;29;20109;-80
2023/09/28 11:19:08;;;;;;;20.52;3.20;;;19.20;99.90;;;;;;4897010;29;20064;-79
2023/09/28 11:21:54;;;;;;;15.80;3.22;;;19.50;99.90;;;;;;4898249;29;20056;-80
2023/09/28 11:24:41;;;;;;;14.80;3.03;;;19.60;99.90;;;;;;4897627;29;20056;-79
2023/09/28 11:27:28;;;;;;;22.25;4.00;;;19.50;99.90;;;;;;4897594;29;20063;-79
2023/09/28 11:30:18;;;;;;;13.57;3.05;;;19.60;99.90;;;;;;4896736;29;20056;-77
2023/09/28 11:33:05;;;;;;;19.13;3.92;;;19.50;99.90;;;;;;4896704;29;20135;-76
2023/09/28 11:35:51;;;;;;;19.95;4.32;;;19.40;99.90;;;;;;4896823;29;20072;-76
2023/09/28 11:38:39;;;;;;;22.77;3.97;;;19.30;99.90;;;;;;4896839;29;20073;-75
2023/09/28 11:41:26;;;;;;;22.02;3.92;;;19.30;99.90;;;;;;4897666;29;20056;-79
2023/09/28 11:44:19;;;;;;;17.05;3.67;;;19.40;99.90;;;;;;4879830;29;20053;-78
2023/09/28 11:47:06;;;;;;;19.00;3.88;;;19.70;99.90;;;;;;4896336;29;20063;-76
2023/09/28 11:49:52;;;;;;;18.00;3.22;;;19.50;99.90;;;;;;4880165;29;20053;-75
2023/09/28 11:52:38;;;;;;;18.73;3.33;;;19.40;99.90;;;;;;4883754;29;20561;-75
2023/09/28 11:55:25;;;;;;;18.30;3.13;;;19.30;99.90;;;;;;4879557;29;20103;-75
2023/09/28 11:58:11;;;;;;;16.98;3.08;;;19.20;99.90;;;;;;4883440;29;20075;-80
2023/09/28 12:00:57;;;;;;;16.80;3.50;;;19.20;99.90;;;;;;4897787;29;20048;-77
2023/09/28 12:03:47;;;;;;;17.60;3.67;;;19.20;99.90;;;;;;4879827;29;20485;-76
2023/09/28 12:06:33;;;;;;;17.63;2.92;;;19.20;99.90;;;;;;4856481;29;20064;-79
2023/09/28 12:09:20;;;;;;;13.38;2.78;;;19.30;99.90;;;;;;4896623;29;20100;-75
2023/09/28 12:12:06;;;;;;;18.02;2.88;;;19.50;99.90;;;;;;4896074;29;20099;-76
2023/09/28 12:14:52;;;;;;;17.35;2.75;;;19.40;99.90;;;;;;4895974;29;20146;-76
2023/09/28 12:17:42;;;;;;;14.02;3.40;;;19.50;99.90;;;;;;4897532;29;20053;-77
2023/09/28 12:20:29;;;;;;;19.52;3.05;;;19.50;99.90;;;;;;4896058;29;20070;-77
2023/09/28 12:23:17;;;;;;;20.38;3.78;;;19.60;99.90;;;;;;4895852;29;20135;-77
2023/09/28 12:26:03;;;;;;;15.93;3.67;;;19.50;99.90;;;;;;4896759;29;20063;-76
2023/09/28 12:28:49;;;;;;;15.77;3.22;;;19.50;99.90;;;;;;4896685;28;20055;-77
2023/09/28 12:31:35;;;;;;;16.10;4.15;;;19.40;99.90;;;;;;4896820;29;20048;-76
2023/09/28 12:34:25;;;;;;;18.20;4.18;;;19.40;99.90;;;;;;4879745;29;20523;-78
2023/09/28 12:37:11;;;;;;;16.70;3.08;;;19.40;99.90;;;;;;4896699;29;20167;-76
2023/09/28 12:39:57;;;;;;;17.80;3.55;;;19.50;99.90;;;;;;4896921;29;20425;-77
2023/09/28 12:42:43;;;;;;;13.48;2.90;;;19.60;99.90;;;;;;4895803;29;20064;-79
2023/09/28 12:45:33;;;;;;;17.67;3.53;;;19.70;99.90;;;;;;4882934;29;20061;-76
2023/09/28 12:48:20;;;;;;;12.43;3.88;;;20.00;99.90;;;;;;4897526;29;20048;-77
2023/09/28 12:51:06;;;;;;;17.73;3.30;;;20.10;99.90;;;;;;4882240;29;20115;-78
2023/09/28 12:53:52;;;;;;;16.92;3.00;;;20.30;99.90;;;;;;4897005;29;20040;-76
2023/09/28 12:56:38;;;;;;;12.25;2.83;;;20.20;99.90;;;;;;4896934;29;20080;-76
2023/09/28 12:59:24;;;;;;;19.08;3.95;;;20.20;99.90;;;;;;4880314;29;20414;-77
2023/09/28 13:02:10;;;;;;;24.80;4.97;;;20.20;99.90;;;;;;4882973;29;20055;-76
2023/09/28 13:04:57;;;;;;;20.98;4.57;;;20.20;99.90;;;;;;4896888;29;20052;-75
2023/09/28 13:07:43;;;;;;;25.98;4.57;;;20.20;99.90;;;;;;4895561;29;20060;-78
2023/09/28 13:10:30;;;;;;;19.13;3.30;;;20.20;99.90;;;;;;4896146;28;20052;-77
2023/09/28 13:13:16;;;;;;;22.77;4.13;;;20.00;99.90;;;;;;4896964;29;20067;-75
2023/09/28 13:16:02;;;;;;;15.20;3.80;;;19.90;99.90;;;;;;4880017;29;20120;-76
2023/09/28 13:18:49;;;;;;;13.32;3.40;;;19.80;99.90;;;;;;4897338;29;20056;-76
2023/09/28 13:21:35;;;;;;;18.17;3.70;;;19.80;99.90;;;;;;4897064;29;20100;-79
2023/09/28 13:24:21;;;;;;;16.55;3.67;;;19.80;99.90;;;;;;4896880;29;20056;-77
2023/09/28 13:27:07;;;;;;;14.50;3.38;;;19.80;99.90;;;;;;4896365;29;20052;-78
2023/09/28 13:29:54;;;;;;;19.17;4.13;;;19.70;99.90;;;;;;4866038;29;20075;-79
2023/09/28 13:32:40;;;;;;;17.42;3.85;;;19.50;99.90;;;;;;4896838;29;20052;-80
2023/09/28 13:35:26;;;;;;;16.27;3.28;;;19.50;99.90;;;;;;4879987;29;20052;-76
2023/09/28 13:38:12;;;;;;;17.80;3.72;;;19.50;99.90;;;;;;4880670;29;20067;-78
2023/09/28 13:40:58;;;;;;;18.55;5.00;;;19.40;99.90;;;;;;4899583;29;20515;-80
2023/09/28 13:43:44;;;;;;;22.83;5.10;;;19.40;99.90;;;;;;4869911;29;20068;-77
2023/09/28 13:46:30;;;;;;;19.13;3.60;;;19.40;99.90;;;;;;4899821;29;20053;-75
2023/09/28 13:49:16;;;;;;;22.55;3.85;;;19.40;99.90;;;;;;4883137;29;20064;-80
2023/09/28 13:52:03;;;;;;;17.92;3.97;;;19.40;99.90;;;;;;4882992;29;20053;-79
2023/09/28 13:54:50;;;;;;;17.35;3.50;;;19.30;99.90;;;;;;4900113;29;20057;-75
2023/09/28 13:57:36;;;;;;;24.05;4.05;;;19.30;99.90;;;;;;4884996;29;20059;-75
2023/09/28 14:00:33;;;;;;;21.65;3.88;;;19.30;99.90;;;;;;4899844;29;20045;-79
2023/09/28 14:03:19;;;;;;;25.52;3.72;;;19.30;99.90;;;;;;4900312;29;20055;-79
2023/09/28 14:06:08;;;;;;;21.25;3.60;;;19.40;99.90;;;;;;4882453;29;20053;-78
2023/09/28 14:08:56;;;;;;;21.35;4.50;;;19.40;99.90;;;;;;4882324;29;20063;-77
2023/09/28 14:11:43;;;;;;;19.15;4.25;;;19.30;99.90;;;;;;4899281;29;20060;-78
2023/09/28 14:14:31;;;;;;;22.98;3.97;;;19.30;99.90;;;;;;4899476;29;20106;-79
2023/09/28 14:17:17;;;;;;;17.67;3.60;;;19.20;99.90;;;;;;4868370;29;20052;-78